Terminal Aerodrome Forecast
Issued by NWS Jacksonville, FL

Home | Current Version | Previous Version | Text Only | Print | Product List | Glossary On
Versions: 1 2 3 4 5 6 7 8 9 10 11 12 13 14 15 16 17 18 19 20
000
FTUS42 KJAX 222332
TAFJAX
TAF
KJAX 222332Z 2300/2324 12008KT P6SM SCT040
     FM230900 08003KT 4SM BR BKN030
     FM231100 07003KT 2SM BR BKN010
     FM231400 10009KT P6SM SCT030=

USA.gov is the U.S. government's official web portal to all federal, state and local government web resources and services.